Time;durP1;ratioP1;P1;durP2;ratioP2;P2;SDS_P1;SDS_P2;PMS_P1;PMS_P2;Temp;Humidity;BMP_temperature;BMP_pressure;BME280_temperature;BME280_humidity;BME280_pressure;Samples;Min_cycle;Max_cycle;Signal;HPM_P1;HPM_P2
2021/05/30 00:02:02;;;;;;;2.38;1.77;;;19.30;55.90;;;;;;5038738;28;20021;-59
2021/05/30 00:04:28;;;;;;;2.85;1.70;;;19.30;56.00;;;;;;5044927;28;20029;-60
2021/05/30 00:16:35;;;;;;;1.77;1.60;;;19.10;56.50;;;;;;5031375;28;20396;-59
2021/05/30 00:19:02;;;;;;;2.80;1.80;;;19.00;56.50;;;;;;5042323;28;20025;-60
2021/05/30 00:21:27;;;;;;;2.38;2.08;;;19.00;56.60;;;;;;5022554;28;20056;-59
2021/05/30 00:23:53;;;;;;;1.85;1.63;;;18.90;56.60;;;;;;5032484;28;20036;-59
2021/05/30 00:26:18;;;;;;;2.80;1.88;;;18.90;56.70;;;;;;5034374;28;20041;-59
2021/05/30 00:28:44;;;;;;;2.78;1.90;;;18.90;56.80;;;;;;5031076;28;20072;-59
2021/05/30 00:31:09;;;;;;;2.40;1.90;;;18.90;56.90;;;;;;5018976;28;20029;-59
2021/05/30 00:33:35;;;;;;;2.67;1.95;;;18.80;56.90;;;;;;5048736;28;20464;-59
2021/05/30 00:36:00;;;;;;;2.75;1.90;;;18.80;57.00;;;;;;5016147;28;20048;-59
2021/05/30 00:38:26;;;;;;;3.92;1.70;;;18.80;57.10;;;;;;5031961;28;20454;-59
2021/05/30 00:40:52;;;;;;;2.63;1.65;;;18.70;57.20;;;;;;5051200;28;20488;-60
2021/05/30 00:43:18;;;;;;;2.80;1.80;;;18.70;57.30;;;;;;5041897;28;20025;-59
2021/05/30 00:45:45;;;;;;;2.55;1.88;;;18.70;57.30;;;;;;5049337;28;20511;-59
2021/05/30 00:48:11;;;;;;;2.65;1.80;;;18.60;57.30;;;;;;5054432;28;20039;-59
2021/05/30 00:50:36;;;;;;;2.55;1.80;;;18.60;57.50;;;;;;5039549;28;20512;-60
2021/05/30 00:53:02;;;;;;;2.22;2.00;;;18.50;57.50;;;;;;5056345;28;20025;-60
2021/05/30 00:55:27;;;;;;;2.95;2.05;;;18.50;57.60;;;;;;5048434;28;20021;-59
2021/05/30 00:57:53;;;;;;;2.45;2.05;;;18.50;57.70;;;;;;5035787;28;20048;-59
2021/05/30 01:00:19;;;;;;;2.17;1.90;;;18.40;57.70;;;;;;5028257;28;20112;-59
2021/05/30 01:02:44;;;;;;;4.05;1.88;;;18.40;57.80;;;;;;5032542;28;20480;-59
2021/05/30 01:05:10;;;;;;;2.97;1.70;;;18.30;57.80;;;;;;5050195;28;20073;-59
2021/05/30 01:07:41;;;;;;;2.00;1.83;;;18.40;58.00;;;;;;5051279;28;20816;-60
2021/05/30 01:10:32;;;;;;;6.13;1.90;;;18.30;58.10;;;;;;5038040;28;20051;-59
2021/05/30 01:12:58;;;;;;;2.63;1.98;;;18.30;58.20;;;;;;5026580;28;20024;-59
2021/05/30 01:15:25;;;;;;;2.47;1.90;;;18.30;58.20;;;;;;5048462;28;20389;-60
2021/05/30 01:17:52;;;;;;;3.20;1.80;;;18.20;58.20;;;;;;5042333;28;20020;-57
2021/05/30 01:20:18;;;;;;;2.58;1.80;;;18.20;58.30;;;;;;5054738;28;20031;-59
2021/05/30 01:22:44;;;;;;;2.72;1.80;;;18.20;58.30;;;;;;5039382;28;20045;-59
2021/05/30 01:25:11;;;;;;;2.10;1.90;;;18.10;58.40;;;;;;5019849;28;20017;-60
2021/05/30 01:27:37;;;;;;;2.83;1.92;;;18.10;58.50;;;;;;5037764;28;20029;-60
2021/05/30 01:30:04;;;;;;;4.18;1.88;;;18.10;58.60;;;;;;5047133;28;20033;-59
2021/05/30 01:32:30;;;;;;;2.00;1.70;;;18.00;58.60;;;;;;5030255;28;20024;-59
2021/05/30 01:34:55;;;;;;;2.50;1.65;;;18.00;58.70;;;;;;5037370;28;20107;-59
2021/05/30 01:37:21;;;;;;;2.17;1.92;;;18.00;58.80;;;;;;5044930;28;20025;-59
2021/05/30 01:39:46;;;;;;;3.13;1.90;;;17.90;58.80;;;;;;5052140;28;20033;-59
2021/05/30 01:42:12;;;;;;;2.95;1.83;;;17.90;58.80;;;;;;5050843;28;20029;-59
2021/05/30 01:44:37;;;;;;;3.90;1.70;;;17.90;58.80;;;;;;5052730;28;20472;-59
2021/05/30 01:47:03;;;;;;;2.45;1.80;;;17.80;58.90;;;;;;5050705;28;20025;-59
2021/05/30 01:49:28;;;;;;;2.10;1.67;;;17.80;59.00;;;;;;5051595;28;20451;-59
2021/05/30 01:51:54;;;;;;;1.58;1.48;;;17.80;59.00;;;;;;5047868;28;20098;-59
2021/05/30 01:54:20;;;;;;;4.03;1.58;;;17.80;59.20;;;;;;5046040;28;20036;-59
2021/05/30 01:56:58;;;;;;;2.58;1.50;;;17.70;59.20;;;;;;5028640;28;20029;-59
2021/05/30 01:59:27;;;;;;;4.20;1.80;;;17.70;59.30;;;;;;5052136;28;20036;-59
2021/05/30 02:01:54;;;;;;;2.70;1.60;;;17.60;59.30;;;;;;5048886;28;20179;-59
2021/05/30 02:04:22;;;;;;;2.25;1.70;;;17.60;59.30;;;;;;5026186;28;20392;-59
2021/05/30 02:06:48;;;;;;;3.63;1.50;;;17.60;59.40;;;;;;5013211;28;20043;-59
2021/05/30 02:09:13;;;;;;;3.10;1.55;;;17.60;59.50;;;;;;5039525;28;20025;-58
2021/05/30 02:11:39;;;;;;;2.15;1.80;;;17.50;59.40;;;;;;5018919;28;20033;-59
2021/05/30 02:14:04;;;;;;;3.00;1.60;;;17.50;59.60;;;;;;5040269;28;20016;-59
2021/05/30 02:16:30;;;;;;;2.60;1.85;;;17.50;59.60;;;;;;5041447;28;20473;-59
2021/05/30 02:18:56;;;;;;;2.35;1.70;;;17.50;59.60;;;;;;5042510;28;20037;-60
2021/05/30 02:21:21;;;;;;;2.15;1.52;;;17.50;59.70;;;;;;5010415;28;20500;-59
2021/05/30 02:23:47;;;;;;;2.15;1.77;;;17.40;59.60;;;;;;5037121;28;20202;-59
2021/05/30 02:26:13;;;;;;;2.47;1.60;;;17.40;59.80;;;;;;5042708;28;20032;-59
2021/05/30 02:28:38;;;;;;;1.63;1.52;;;17.40;59.90;;;;;;5038156;28;20381;-59
2021/05/30 02:31:04;;;;;;;2.63;1.92;;;17.30;59.90;;;;;;5045559;28;20107;-59
2021/05/30 02:33:29;;;;;;;2.33;1.80;;;17.30;60.00;;;;;;5038043;28;20057;-59
2021/05/30 02:35:55;;;;;;;3.38;1.48;;;17.30;60.00;;;;;;5043825;28;20025;-59
2021/05/30 02:38:21;;;;;;;2.42;1.40;;;17.30;60.00;;;;;;5046344;28;20144;-59
2021/05/30 02:40:46;;;;;;;3.17;1.77;;;17.20;60.10;;;;;;5051859;28;20099;-59
2021/05/30 02:43:12;;;;;;;2.60;1.58;;;17.20;60.20;;;;;;5067870;28;20091;-59
2021/05/30 02:45:37;;;;;;;1.80;1.58;;;17.20;60.20;;;;;;5064052;28;20037;-59
2021/05/30 02:48:03;;;;;;;2.20;1.83;;;17.20;60.30;;;;;;5048663;28;20499;-59
2021/05/30 02:50:29;;;;;;;1.80;1.40;;;17.10;60.30;;;;;;5058877;28;20036;-59
2021/05/30 02:52:54;;;;;;;1.80;1.40;;;17.10;60.30;;;;;;5059878;28;20724;-59
2021/05/30 02:55:20;;;;;;;2.13;1.67;;;17.10;60.40;;;;;;5056462;28;20105;-59
2021/05/30 02:57:45;;;;;;;3.03;1.75;;;17.10;60.50;;;;;;5049855;28;20035;-59
2021/05/30 03:00:11;;;;;;;1.70;1.50;;;17.10;60.50;;;;;;5043170;28;20100;-59
2021/05/30 03:02:37;;;;;;;2.15;1.42;;;17.00;60.50;;;;;;5065798;28;20075;-59
2021/05/30 03:05:06;;;;;;;1.73;1.52;;;17.00;60.60;;;;;;5034599;28;20099;-59
2021/05/30 03:07:32;;;;;;;2.35;1.70;;;17.00;60.60;;;;;;5030378;28;20411;-59
2021/05/30 03:09:58;;;;;;;2.20;1.58;;;17.00;60.60;;;;;;5044316;28;20025;-60
2021/05/30 03:12:23;;;;;;;2.83;1.60;;;16.90;60.70;;;;;;5049805;28;20028;-59
2021/05/30 03:14:49;;;;;;;4.10;1.88;;;16.90;60.70;;;;;;5047503;28;20036;-59
2021/05/30 03:17:14;;;;;;;3.13;1.60;;;16.90;60.90;;;;;;5070106;28;20037;-59
2021/05/30 03:19:40;;;;;;;2.33;1.65;;;16.80;60.90;;;;;;5052555;28;20245;-59
2021/05/30 03:22:06;;;;;;;2.90;1.67;;;16.80;61.00;;;;;;5052453;28;20077;-59
2021/05/30 03:24:32;;;;;;;2.20;1.67;;;16.80;61.00;;;;;;5036586;28;20532;-58
2021/05/30 03:26:57;;;;;;;1.60;1.42;;;16.70;61.00;;;;;;5053614;28;20120;-59
2021/05/30 03:29:23;;;;;;;1.58;1.40;;;16.70;61.10;;;;;;5032607;28;20029;-59
2021/05/30 03:31:49;;;;;;;2.13;1.55;;;16.50;61.10;;;;;;5052211;28;20035;-59
2021/05/30 03:34:14;;;;;;;1.63;1.40;;;16.70;61.30;;;;;;5049641;28;20064;-59
2021/05/30 03:36:41;;;;;;;1.90;1.25;;;16.60;61.30;;;;;;5053705;28;20036;-59
2021/05/30 03:39:07;;;;;;;2.83;1.48;;;16.60;61.30;;;;;;5035040;28;20033;-59
2021/05/30 03:41:36;;;;;;;2.05;1.50;;;16.60;61.40;;;;;;5053296;28;20634;-59
2021/05/30 03:44:02;;;;;;;1.55;1.45;;;16.60;61.50;;;;;;5049905;28;20029;-60
2021/05/30 03:46:28;;;;;;;1.88;1.35;;;16.50;61.50;;;;;;5051828;28;20025;-59
2021/05/30 03:48:53;;;;;;;1.42;1.30;;;16.50;61.60;;;;;;5049964;28;20029;-59
2021/05/30 03:51:19;;;;;;;1.40;1.23;;;16.50;61.70;;;;;;5047036;28;20120;-59
2021/05/30 03:53:44;;;;;;;1.85;1.50;;;16.50;61.70;;;;;;5043749;28;20115;-59
2021/05/30 03:56:10;;;;;;;2.72;1.75;;;16.50;61.70;;;;;;5058498;28;20384;-59
2021/05/30 03:58:35;;;;;;;1.40;1.30;;;16.40;62.40;;;;;;5038330;28;20599;-59
2021/05/30 04:01:01;;;;;;;1.63;1.33;;;16.40;61.80;;;;;;5064052;28;20047;-59
2021/05/30 04:03:26;;;;;;;1.52;1.40;;;16.40;62.00;;;;;;5046764;28;20029;-59
2021/05/30 04:05:52;;;;;;;2.40;1.52;;;16.40;61.90;;;;;;5041586;28;20035;-59
2021/05/30 04:08:17;;;;;;;2.35;1.50;;;16.30;61.90;;;;;;5053360;28;20033;-59
2021/05/30 04:10:44;;;;;;;3.35;1.80;;;16.30;62.00;;;;;;5041453;28;20546;-59
2021/05/30 04:13:10;;;;;;;2.72;1.83;;;16.30;61.90;;;;;;5054484;28;20099;-59
2021/05/30 04:15:35;;;;;;;3.65;1.75;;;16.30;62.00;;;;;;5060735;28;20025;-59
2021/05/30 04:18:01;;;;;;;4.25;1.80;;;16.30;62.00;;;;;;5053411;28;20031;-59
2021/05/30 04:20:26;;;;;;;3.58;1.60;;;16.30;62.00;;;;;;5054754;28;20472;-59
2021/05/30 04:22:52;;;;;;;2.35;1.63;;;16.30;62.00;;;;;;5054914;28;20045;-58
2021/05/30 04:25:17;;;;;;;5.65;1.75;;;16.30;62.10;;;;;;5053048;28;20477;-59
2021/05/30 04:27:43;;;;;;;3.38;1.50;;;16.20;62.20;;;;;;5055506;28;20025;-59
2021/05/30 04:30:11;;;;;;;3.70;1.65;;;16.30;62.40;;;;;;5042561;28;20045;-59
2021/05/30 04:32:36;;;;;;;6.93;1.90;;;16.30;62.40;;;;;;5056597;28;20100;-59
2021/05/30 04:35:03;;;;;;;3.03;1.70;;;16.30;62.40;;;;;;5041336;28;20120;-59
2021/05/30 04:37:28;;;;;;;4.28;1.60;;;16.30;62.40;;;;;;5055564;28;20029;-59
2021/05/30 04:39:54;;;;;;;5.05;1.83;;;16.30;62.40;;;;;;5059706;28;20075;-59
2021/05/30 04:42:19;;;;;;;3.53;1.70;;;16.30;62.50;;;;;;5055607;28;20400;-59
2021/05/30 04:44:46;;;;;;;4.57;1.83;;;16.30;62.60;;;;;;5058191;28;20476;-59
2021/05/30 04:47:11;;;;;;;4.70;1.90;;;16.20;62.60;;;;;;5048834;28;20079;-59
2021/05/30 04:49:38;;;;;;;4.28;1.75;;;16.20;62.60;;;;;;5054617;28;20472;-59
2021/05/30 04:52:04;;;;;;;4.10;1.83;;;16.20;62.60;;;;;;5034722;28;20037;-59
2021/05/30 04:54:30;;;;;;;2.95;1.88;;;16.20;62.60;;;;;;5024783;28;20052;-59
2021/05/30 04:56:55;;;;;;;6.57;2.03;;;16.20;62.70;;;;;;5038133;28;20025;-59
2021/05/30 04:59:21;;;;;;;3.67;1.90;;;16.20;62.90;;;;;;5048586;28;20053;-59
2021/05/30 05:01:46;;;;;;;3.75;2.00;;;16.20;63.00;;;;;;5053884;28;20123;-59
2021/05/30 05:04:12;;;;;;;5.82;2.03;;;16.20;62.90;;;;;;5048506;28;20036;-59
2021/05/30 05:06:37;;;;;;;3.92;1.95;;;16.20;63.00;;;;;;5041145;28;20427;-59
2021/05/30 05:09:03;;;;;;;3.88;1.77;;;16.20;63.00;;;;;;5045209;28;20025;-59
2021/05/30 05:11:28;;;;;;;7.88;1.88;;;16.20;63.10;;;;;;5041792;28;20026;-59
2021/05/30 05:13:54;;;;;;;3.92;1.52;;;16.20;63.00;;;;;;5053591;28;20020;-59
2021/05/30 05:16:20;;;;;;;7.03;2.70;;;16.20;63.10;;;;;;5058944;28;20499;-59
2021/05/30 05:18:45;;;;;;;4.95;1.83;;;16.20;63.10;;;;;;5043017;28;20030;-59
2021/05/30 05:21:11;;;;;;;6.22;1.55;;;16.20;63.10;;;;;;5047899;28;20563;-59
2021/05/30 05:23:36;;;;;;;11.43;2.60;;;16.20;63.20;;;;;;5053274;28;20059;-59
2021/05/30 05:26:04;;;;;;;10.10;2.55;;;16.20;63.20;;;;;;5050957;28;20391;-59
2021/05/30 05:28:30;;;;;;;8.45;2.35;;;16.20;63.20;;;;;;5016838;28;20025;-59
2021/05/30 05:30:55;;;;;;;11.00;2.15;;;16.20;63.30;;;;;;5041253;28;20749;-61
2021/05/30 05:33:21;;;;;;;12.15;2.58;;;16.20;63.40;;;;;;5041551;28;20035;-59
2021/05/30 05:35:46;;;;;;;9.38;2.13;;;16.20;63.20;;;;;;5049638;28;20507;-58
2021/05/30 05:38:12;;;;;;;13.07;2.80;;;16.20;63.30;;;;;;5047737;28;20045;-59
2021/05/30 05:40:38;;;;;;;6.13;2.28;;;16.20;63.40;;;;;;5049268;28;20039;-59
2021/05/30 05:43:07;;;;;;;5.90;1.95;;;16.20;63.50;;;;;;5033801;28;20025;-59
2021/05/30 05:45:33;;;;;;;12.90;2.22;;;16.20;63.60;;;;;;5031691;28;20021;-59
2021/05/30 05:47:59;;;;;;;12.98;2.17;;;16.20;64.00;;;;;;5038789;28;20042;-59
2021/05/30 05:50:24;;;;;;;12.05;2.20;;;16.20;64.30;;;;;;5041070;28;20419;-59
2021/05/30 05:52:50;;;;;;;9.50;2.55;;;16.20;64.50;;;;;;5035397;28;20428;-59
2021/05/30 05:55:16;;;;;;;6.32;2.40;;;16.10;64.50;;;;;;5049813;28;20086;-59
2021/05/30 05:57:42;;;;;;;4.38;1.60;;;16.10;64.30;;;;;;5036711;28;20134;-59
2021/05/30 06:00:13;;;;;;;5.15;2.10;;;16.10;64.30;;;;;;5056907;28;20037;-59
2021/05/30 06:02:38;;;;;;;7.57;2.40;;;16.10;64.30;;;;;;5048156;28;20111;-59
2021/05/30 06:05:07;;;;;;;6.93;2.15;;;16.10;64.30;;;;;;5055839;28;20493;-59
2021/05/30 06:07:33;;;;;;;8.52;2.08;;;16.10;64.30;;;;;;5034821;28;20516;-59
2021/05/30 06:09:59;;;;;;;6.07;2.03;;;16.10;64.50;;;;;;5040652;28;20546;-59
2021/05/30 06:12:24;;;;;;;5.60;2.17;;;16.10;64.60;;;;;;5062295;28;20104;-59
2021/05/30 06:14:50;;;;;;;5.82;2.22;;;16.10;64.70;;;;;;5059521;28;20020;-59
2021/05/30 06:17:15;;;;;;;21.15;3.35;;;16.10;64.70;;;;;;5061459;28;20387;-59
2021/05/30 06:19:41;;;;;;;18.65;2.70;;;16.10;64.80;;;;;;5030469;28;20021;-59
2021/05/30 06:22:06;;;;;;;12.35;2.70;;;16.10;65.80;;;;;;5055231;28;20556;-59
2021/05/30 06:24:32;;;;;;;11.35;3.03;;;16.10;65.70;;;;;;5039260;28;20522;-59
2021/05/30 06:26:58;;;;;;;11.45;2.67;;;16.10;65.50;;;;;;5026660;28;20254;-58
2021/05/30 06:29:23;;;;;;;8.95;2.30;;;16.00;66.20;;;;;;5054436;28;20544;-59
2021/05/30 06:31:49;;;;;;;8.30;2.30;;;16.00;65.70;;;;;;5060720;28;20032;-59
2021/05/30 06:34:15;;;;;;;10.55;2.55;;;16.00;65.60;;;;;;5039998;28;20029;-59
2021/05/30 06:36:42;;;;;;;11.77;2.50;;;16.00;65.60;;;;;;5060605;28;20033;-59
2021/05/30 06:39:07;;;;;;;7.20;2.85;;;16.00;65.40;;;;;;5049563;28;20014;-59
2021/05/30 06:41:34;;;;;;;6.63;2.22;;;16.20;65.40;;;;;;5044177;28;20093;-59
2021/05/30 06:44:00;;;;;;;8.27;2.17;;;16.00;65.30;;;;;;5032691;28;20139;-58
2021/05/30 06:46:26;;;;;;;7.68;2.10;;;16.00;65.20;;;;;;5043013;28;20107;-58
2021/05/30 06:48:51;;;;;;;6.97;2.10;;;16.00;65.20;;;;;;5054931;28;20021;-59
2021/05/30 06:51:18;;;;;;;9.68;2.40;;;16.00;65.20;;;;;;5056314;28;20028;-59
2021/05/30 06:53:47;;;;;;;6.53;2.10;;;16.00;65.90;;;;;;5044270;28;20515;-59
2021/05/30 06:56:12;;;;;;;11.20;2.40;;;16.00;65.40;;;;;;5056847;28;20441;-59
2021/05/30 06:58:39;;;;;;;9.70;2.50;;;16.00;65.50;;;;;;5048191;28;20108;-59
2021/05/30 07:01:04;;;;;;;7.47;2.22;;;16.00;65.50;;;;;;5018917;28;20045;-59
2021/05/30 07:03:30;;;;;;;3.13;2.00;;;16.00;65.40;;;;;;5047461;28;20060;-59
2021/05/30 07:05:56;;;;;;;6.10;1.92;;;16.00;65.30;;;;;;5050964;28;20119;-59
2021/05/30 07:08:22;;;;;;;9.07;2.00;;;16.00;65.30;;;;;;5049555;28;20330;-59
2021/05/30 07:10:47;;;;;;;4.93;1.88;;;16.00;65.20;;;;;;5057861;28;20082;-59
2021/05/30 07:13:12;;;;;;;5.88;2.33;;;16.00;65.20;;;;;;5050917;28;20026;-59
2021/05/30 07:15:39;;;;;;;2.35;1.92;;;16.00;65.20;;;;;;5041332;28;20376;-58
2021/05/30 07:18:05;;;;;;;6.95;1.90;;;16.00;65.20;;;;;;5031463;28;20056;-59
2021/05/30 07:20:30;;;;;;;3.30;1.90;;;16.00;65.20;;;;;;5053011;28;20048;-59
2021/05/30 07:22:56;;;;;;;13.00;2.30;;;16.00;65.20;;;;;;5041001;28;20037;-59
2021/05/30 07:25:21;;;;;;;4.30;1.90;;;16.00;65.20;;;;;;5062171;28;20028;-59
2021/05/30 07:27:47;;;;;;;6.35;1.70;;;16.00;65.20;;;;;;5056051;28;20025;-59
2021/05/30 07:30:13;;;;;;;9.07;2.10;;;16.00;65.20;;;;;;5048576;28;20384;-59
2021/05/30 07:32:38;;;;;;;6.38;2.00;;;16.00;65.20;;;;;;5057997;28;20034;-59
2021/05/30 07:35:04;;;;;;;4.20;1.70;;;16.00;65.20;;;;;;5057556;28;20091;-58
2021/05/30 07:37:30;;;;;;;5.97;1.60;;;16.00;65.30;;;;;;5045035;28;20063;-58
2021/05/30 07:39:55;;;;;;;3.85;1.70;;;16.00;65.40;;;;;;5047009;28;20029;-59
2021/05/30 07:42:21;;;;;;;3.33;1.60;;;15.90;65.20;;;;;;5035841;28;20032;-58
2021/05/30 07:44:46;;;;;;;6.80;1.83;;;15.90;65.30;;;;;;5033934;28;20037;-59
2021/05/30 07:47:12;;;;;;;8.40;1.67;;;15.90;65.30;;;;;;5052799;28;20280;-60
2021/05/30 07:49:37;;;;;;;5.05;1.50;;;15.90;65.10;;;;;;5042658;28;20548;-61
2021/05/30 07:52:03;;;;;;;3.63;1.48;;;15.90;65.00;;;;;;5041751;28;20041;-61
2021/05/30 07:54:29;;;;;;;2.58;1.65;;;16.00;65.10;;;;;;5044719;28;20036;-58
2021/05/30 07:56:54;;;;;;;1.65;1.20;;;16.00;65.00;;;;;;5043609;28;20052;-59
2021/05/30 07:59:20;;;;;;;1.98;1.33;;;15.90;65.00;;;;;;5045470;28;20027;-59
2021/05/30 08:01:46;;;;;;;2.22;1.50;;;15.90;65.00;;;;;;5035953;28;20087;-59
2021/05/30 08:04:12;;;;;;;1.85;1.30;;;16.00;64.90;;;;;;5048350;28;20020;-59
2021/05/30 08:06:38;;;;;;;2.28;1.40;;;16.00;65.00;;;;;;5034976;28;20033;-59
2021/05/30 08:09:03;;;;;;;4.25;1.63;;;16.00;64.70;;;;;;5054374;28;20064;-59
2021/05/30 08:11:29;;;;;;;2.78;1.80;;;16.00;64.70;;;;;;5039673;28;20522;-59
2021/05/30 08:13:55;;;;;;;3.60;1.42;;;16.00;64.50;;;;;;5036807;28;20026;-59
2021/05/30 08:16:20;;;;;;;7.90;1.50;;;16.00;64.30;;;;;;5041366;28;20029;-59
2021/05/30 08:18:46;;;;;;;10.57;1.65;;;16.00;64.00;;;;;;5050716;28;20600;-59
2021/05/30 08:21:12;;;;;;;4.60;1.60;;;16.00;63.50;;;;;;5051546;28;20083;-59
2021/05/30 08:23:40;;;;;;;3.95;1.73;;;16.00;63.00;;;;;;5054429;28;20021;-59
2021/05/30 08:26:06;;;;;;;4.85;1.33;;;16.10;62.80;;;;;;5053273;28;20084;-59
2021/05/30 08:28:31;;;;;;;2.67;1.30;;;16.10;62.00;;;;;;5042741;28;20476;-60
2021/05/30 08:30:57;;;;;;;9.20;1.58;;;16.10;61.80;;;;;;5061671;28;20036;-59
2021/05/30 08:33:22;;;;;;;5.22;1.45;;;16.10;62.30;;;;;;5026510;28;20040;-59
2021/05/30 08:35:48;;;;;;;11.45;1.65;;;16.20;61.70;;;;;;5055329;28;20068;-58
2021/05/30 08:38:13;;;;;;;7.97;1.83;;;16.20;61.70;;;;;;5057746;28;20108;-58
2021/05/30 08:40:39;;;;;;;7.13;1.63;;;16.20;61.40;;;;;;5054932;28;20037;-58
2021/05/30 08:43:05;;;;;;;16.70;1.50;;;16.20;61.10;;;;;;5017068;28;20041;-59
2021/05/30 08:45:30;;;;;;;23.10;2.08;;;16.30;60.50;;;;;;5037065;28;20036;-59
2021/05/30 08:47:56;;;;;;;15.05;1.98;;;16.30;60.30;;;;;;5049340;28;20429;-59
2021/05/30 08:50:21;;;;;;;13.50;2.38;;;16.30;60.10;;;;;;5054671;28;20024;-59
2021/05/30 08:52:47;;;;;;;23.38;3.13;;;16.40;60.40;;;;;;5042975;28;20029;-59
2021/05/30 08:55:12;;;;;;;22.70;3.20;;;16.40;60.60;;;;;;5055412;28;20423;-59
2021/05/30 08:57:39;;;;;;;18.27;2.97;;;16.40;61.20;;;;;;5041921;28;20029;-59
2021/05/30 09:00:05;;;;;;;45.28;3.88;;;16.40;59.90;;;;;;5057009;28;20058;-58
2021/05/30 09:02:31;;;;;;;22.35;2.72;;;16.50;60.10;;;;;;5047429;28;20504;-59
2021/05/30 09:05:00;;;;;;;11.07;1.73;;;16.50;59.40;;;;;;5055241;28;20116;-59
2021/05/30 09:07:42;;;;;;;7.85;2.80;;;16.60;58.60;;;;;;5052563;28;20041;-58
2021/05/30 09:10:12;;;;;;;24.20;2.60;;;16.70;58.30;;;;;;5051039;28;20024;-59
2021/05/30 09:12:39;;;;;;;10.50;2.10;;;16.70;58.20;;;;;;5032339;28;20028;-59
2021/05/30 09:15:11;;;;;;;8.32;1.88;;;16.80;58.00;;;;;;5056589;28;20028;-59
2021/05/30 09:17:37;;;;;;;3.58;1.40;;;16.80;57.70;;;;;;5047779;28;20052;-59
2021/05/30 09:20:05;;;;;;;13.15;1.65;;;16.90;56.70;;;;;;5043913;28;20151;-59
2021/05/30 09:22:37;;;;;;;42.65;4.47;;;16.90;56.00;;;;;;5050428;28;20385;-59
2021/05/30 09:25:19;;;;;;;13.15;2.00;;;17.00;57.60;;;;;;5053958;28;20028;-58
2021/05/30 09:27:49;;;;;;;40.75;4.50;;;17.00;57.20;;;;;;5017900;28;20032;-59
2021/05/30 09:30:22;;;;;;;51.60;5.82;;;17.00;57.80;;;;;;5044681;28;20443;-59
2021/05/30 09:32:57;;;;;;;9.30;2.05;;;17.10;58.50;;;;;;5052089;28;20373;-59
2021/05/30 09:35:24;;;;;;;17.77;2.67;;;17.10;58.30;;;;;;5050603;28;20114;-59
2021/05/30 09:38:06;;;;;;;4.43;1.60;;;17.20;58.40;;;;;;5047327;28;20491;-59
2021/05/30 09:40:40;;;;;;;12.02;2.03;;;17.20;57.70;;;;;;5047225;28;20150;-59
2021/05/30 09:43:10;;;;;;;30.02;4.00;;;17.20;57.40;;;;;;5053628;28;20031;-59
2021/05/30 09:45:37;;;;;;;8.45;2.00;;;17.30;56.90;;;;;;5048998;28;20037;-58
2021/05/30 09:48:04;;;;;;;14.43;2.25;;;17.30;55.90;;;;;;5046967;28;20021;-59
2021/05/30 09:50:32;;;;;;;31.40;4.97;;;17.40;56.20;;;;;;5042395;28;20032;-59
2021/05/30 09:52:59;;;;;;;53.00;8.55;;;17.50;56.40;;;;;;5048055;28;20509;-59
2021/05/30 09:55:26;;;;;;;55.67;5.88;;;17.50;56.70;;;;;;5034441;28;20829;-59
2021/05/30 09:58:13;;;;;;;56.38;5.82;;;17.60;57.00;;;;;;5029043;28;20657;-59
2021/05/30 10:00:40;;;;;;;47.63;4.22;;;17.60;57.00;;;;;;5033310;28;20052;-59
2021/05/30 10:03:05;;;;;;;62.13;7.43;;;17.60;56.20;;;;;;5053859;28;20040;-59
2021/05/30 10:05:31;;;;;;;6.82;1.73;;;17.60;56.30;;;;;;5049019;28;20021;-59
2021/05/30 10:07:57;;;;;;;81.97;8.25;;;17.70;55.10;;;;;;5029373;28;20029;-59
2021/05/30 10:10:23;;;;;;;23.40;2.67;;;17.70;55.70;;;;;;5039431;28;20039;-59
2021/05/30 10:12:48;;;;;;;13.15;2.72;;;17.80;55.60;;;;;;5050539;28;20163;-61
2021/05/30 10:15:14;;;;;;;46.28;4.63;;;17.80;56.00;;;;;;5040273;28;20041;-59
2021/05/30 10:17:40;;;;;;;50.08;5.75;;;17.90;54.80;;;;;;5025741;28;20151;-58
2021/05/30 10:20:07;;;;;;;26.70;3.28;;;17.90;54.30;;;;;;5035325;28;20037;-59
2021/05/30 10:22:32;;;;;;;31.02;3.78;;;18.00;54.30;;;;;;5022956;28;20029;-59
2021/05/30 10:24:58;;;;;;;22.85;3.65;;;18.00;54.70;;;;;;5033560;28;20385;-59
2021/05/30 10:27:25;;;;;;;40.53;4.70;;;18.00;55.10;;;;;;5037586;28;20064;-59
2021/05/30 10:30:13;;;;;;;46.78;5.22;;;18.10;55.40;;;;;;5045075;28;20016;-59
2021/05/30 10:32:46;;;;;;;12.05;2.03;;;18.10;55.50;;;;;;5048301;28;20019;-59
2021/05/30 10:35:12;;;;;;;24.90;3.55;;;18.10;54.40;;;;;;5049025;28;20025;-59
2021/05/30 10:37:41;;;;;;;6.80;2.08;;;18.10;55.10;;;;;;5048100;28;20525;-58
2021/05/30 10:40:22;;;;;;;54.60;5.07;;;18.20;54.70;;;;;;5045829;28;20120;-59
2021/05/30 10:43:12;;;;;;;32.33;3.85;;;18.20;55.30;;;;;;5049464;28;20044;-59
2021/05/30 10:45:46;;;;;;;9.95;2.70;;;18.30;55.30;;;;;;5046766;28;20291;-59
2021/05/30 10:48:13;;;;;;;14.80;2.45;;;18.30;55.00;;;;;;5050007;28;20025;-59
2021/05/30 10:51:14;;;;;;;6.05;1.60;;;18.30;54.20;;;;;;5030563;28;20303;-59
2021/05/30 10:53:40;;;;;;;13.70;2.73;;;18.40;53.60;;;;;;5043127;28;20112;-59
2021/05/30 10:56:31;;;;;;;8.40;1.88;;;18.50;53.90;;;;;;5028438;28;20356;-59
2021/05/30 10:59:03;;;;;;;37.97;3.97;;;18.50;53.70;;;;;;5053940;28;20039;-59
2021/05/30 11:01:34;;;;;;;7.22;2.25;;;18.60;54.50;;;;;;5051909;28;20439;-59
2021/05/30 11:06:51;;;;;;;9.95;2.33;;;18.70;53.20;;;;;;5061226;28;20032;-59
2021/05/30 11:09:17;;;;;;;8.27;1.50;;;18.80;52.80;;;;;;5022063;28;20379;-59
2021/05/30 11:11:43;;;;;;;4.90;1.63;;;18.80;52.20;;;;;;5061203;28;20048;-59
2021/05/30 11:14:15;;;;;;;7.20;1.63;;;18.90;52.70;;;;;;5037203;28;20898;-63
2021/05/30 11:16:45;;;;;;;7.00;1.60;;;18.90;52.40;;;;;;5036928;28;21972;-61
2021/05/30 11:19:14;;;;;;;4.05;1.60;;;19.00;52.30;;;;;;5041979;28;20087;-60
2021/05/30 11:21:43;;;;;;;3.65;1.35;;;19.10;51.90;;;;;;5046670;28;20128;-59
2021/05/30 11:24:19;;;;;;;6.63;2.40;;;19.20;50.80;;;;;;5039548;28;20029;-59
2021/05/30 11:26:58;;;;;;;;;;;19.20;51.00;;;;;;5033966;28;20021;-58
2021/05/30 11:29:24;;;;;;;3.63;1.60;;;19.30;51.30;;;;;;5039451;28;19912;-60
2021/05/30 11:31:50;;;;;;;4.60;1.40;;;19.40;51.60;;;;;;5039992;28;20033;-59
2021/05/30 11:34:15;;;;;;;3.20;1.27;;;19.40;51.50;;;;;;5046182;28;21140;-59
2021/05/30 11:36:41;;;;;;;3.97;1.60;;;19.50;50.90;;;;;;5034770;28;20078;-59
2021/05/30 11:39:16;;;;;;;5.40;1.60;;;19.60;50.80;;;;;;5060484;28;20032;-59
2021/05/30 11:41:49;;;;;;;;;;;19.70;50.90;;;;;;5037017;28;20496;-59
2021/05/30 11:44:15;;;;;;;3.55;1.50;;;19.70;51.00;;;;;;5041930;28;19935;-59
2021/05/30 11:46:42;;;;;;;10.00;1.55;;;19.80;50.90;;;;;;5034537;28;20098;-59
2021/05/30 11:49:13;;;;;;;12.07;2.03;;;19.90;50.80;;;;;;5036271;28;20021;-59
2021/05/30 11:51:52;;;;;;;9.13;2.25;;;19.90;50.80;;;;;;5037912;28;20100;-60
2021/05/30 11:54:19;;;;;;;3.50;1.70;;;20.00;50.50;;;;;;5042341;28;20032;-60
2021/05/30 11:56:45;;;;;;;10.68;1.98;;;20.10;50.60;;;;;;5052667;28;20037;-59
2021/05/30 11:59:11;;;;;;;10.10;2.05;;;20.20;50.70;;;;;;5042260;28;20021;-59
2021/05/30 12:01:49;;;;;;;4.65;1.30;;;20.20;50.90;;;;;;5061544;28;20086;-59
2021/05/30 12:04:21;;;;;;;32.40;3.63;;;20.30;50.40;;;;;;5037349;28;20016;-59
2021/05/30 12:06:47;;;;;;;16.48;2.30;;;20.30;50.80;;;;;;5059023;28;20029;-59
2021/05/30 12:09:13;;;;;;;9.25;1.70;;;20.40;50.80;;;;;;5038421;28;20488;-59
2021/05/30 12:11:40;;;;;;;7.45;1.80;;;20.40;50.60;;;;;;5032079;28;20029;-59
2021/05/30 12:14:05;;;;;;;7.32;1.42;;;20.50;50.70;;;;;;5045968;28;20028;-59
2021/05/30 12:16:31;;;;;;;9.85;1.70;;;20.50;50.60;;;;;;5043440;28;20047;-59
2021/05/30 12:19:01;;;;;;;12.82;1.75;;;20.60;50.50;;;;;;5050434;28;20404;-60
2021/05/30 12:21:43;;;;;;;10.50;2.05;;;20.70;50.80;;;;;;5018865;28;20029;-59
2021/05/30 12:24:11;;;;;;;14.35;2.30;;;20.70;50.50;;;;;;5042467;28;20036;-59
2021/05/30 12:26:43;;;;;;;8.13;1.90;;;20.80;50.60;;;;;;5032648;28;20025;-60
2021/05/30 12:29:09;;;;;;;11.77;2.28;;;20.90;50.50;;;;;;5045684;28;20107;-59
2021/05/30 12:31:34;;;;;;;20.77;2.78;;;20.90;50.50;;;;;;5039960;28;20092;-59
2021/05/30 12:34:04;;;;;;;14.07;1.92;;;21.00;50.50;;;;;;5049621;28;20025;-59
2021/05/30 12:36:33;;;;;;;19.52;2.38;;;21.00;49.70;;;;;;5028362;28;20024;-59
2021/05/30 12:39:17;;;;;;;16.10;2.10;;;21.10;49.80;;;;;;5036516;28;20029;-60
2021/05/30 12:41:44;;;;;;;12.63;1.65;;;21.10;49.90;;;;;;5055090;28;20026;-58
2021/05/30 12:44:11;;;;;;;8.35;1.80;;;21.10;49.10;;;;;;5037636;28;20072;-59
2021/05/30 12:46:37;;;;;;;21.70;2.30;;;21.20;49.00;;;;;;5052122;28;20479;-59
2021/05/30 12:49:13;;;;;;;7.32;1.92;;;21.20;49.40;;;;;;5034834;28;20021;-60
2021/05/30 12:51:38;;;;;;;17.58;1.80;;;21.30;49.00;;;;;;5018282;28;20025;-59
2021/05/30 12:54:17;;;;;;;16.52;2.10;;;21.30;49.00;;;;;;5035957;28;20098;-60
2021/05/30 12:56:47;;;;;;;14.63;2.15;;;21.40;48.70;;;;;;5042953;28;20025;-59
2021/05/30 12:59:19;;;;;;;9.10;2.20;;;21.50;48.70;;;;;;5054780;28;20429;-60